Time;durP1;ratioP1;P1;durP2;ratioP2;P2;SDS_P1;SDS_P2;PMS_P1;PMS_P2;Temp;Humidity;BMP_temperature;BMP_pressure;BME280_temperature;BME280_humidity;BME280_pressure;Samples;Min_cycle;Max_cycle;Signal;HPM_P1;HPM_P2
2022/05/09 00:01:19;;;;;;;9.57;3.50;;;8.30;99.90;;;;;;5068782;28;20044;-75
2022/05/09 00:03:45;;;;;;;8.93;3.10;;;8.30;99.90;;;;;;5068645;28;20056;-76
2022/05/09 00:06:12;;;;;;;11.18;3.65;;;8.20;99.90;;;;;;5068546;28;20340;-75
2022/05/09 00:08:37;;;;;;;17.23;4.03;;;8.20;99.90;;;;;;5069587;28;20392;-75
2022/05/09 00:11:03;;;;;;;9.50;3.00;;;8.20;99.90;;;;;;5052198;28;20115;-75
2022/05/09 00:13:29;;;;;;;16.17;3.03;;;8.20;99.90;;;;;;5068536;28;20310;-75
2022/05/09 00:15:55;;;;;;;29.23;3.03;;;8.10;99.90;;;;;;5068143;28;20079;-75
2022/05/09 00:18:21;;;;;;;4.68;2.30;;;8.00;99.90;;;;;;5051473;28;20043;-75
2022/05/09 00:20:47;;;;;;;4.95;2.25;;;7.90;99.90;;;;;;5051260;28;20048;-75
2022/05/09 00:23:13;;;;;;;4.50;2.25;;;7.80;99.90;;;;;;5068441;28;20047;-76
2022/05/09 00:25:39;;;;;;;5.75;2.08;;;7.80;99.90;;;;;;5068071;28;20029;-75
2022/05/09 00:28:06;;;;;;;3.88;2.30;;;7.60;99.90;;;;;;5068696;28;20036;-74
2022/05/09 00:30:32;;;;;;;4.13;2.35;;;7.60;99.90;;;;;;5068704;28;20052;-75
2022/05/09 00:32:58;;;;;;;;;;;7.60;99.90;;;;;;5068249;28;20086;-75
2022/05/09 00:35:23;;;;;;;5.68;2.30;;;7.60;99.90;;;;;;5068654;28;20361;-75
2022/05/09 00:37:49;;;;;;;6.50;2.77;;;7.60;99.90;;;;;;5051258;28;20102;-75
2022/05/09 00:40:16;;;;;;;7.72;2.78;;;7.70;99.90;;;;;;5067816;28;20086;-75
2022/05/09 00:42:51;;;;;;;10.27;3.22;;;7.60;99.90;;;;;;5051652;28;20052;-75
2022/05/09 00:45:19;;;;;;;16.02;4.30;;;7.80;99.90;;;;;;5068365;28;20526;-75
2022/05/09 00:47:46;;;;;;;16.75;4.65;;;7.60;99.90;;;;;;5068035;28;20029;-75
2022/05/09 00:50:16;;;;;;;14.50;3.95;;;7.70;99.90;;;;;;5068237;28;20044;-76
2022/05/09 00:52:59;;;;;;;14.15;4.32;;;7.80;99.90;;;;;;5067811;28;20041;-75
2022/05/09 00:55:41;;;;;;;12.98;4.40;;;7.70;99.90;;;;;;5068359;28;20119;-75
2022/05/09 00:58:26;;;;;;;16.65;4.18;;;7.90;99.90;;;;;;5068341;28;20055;-76
2022/05/09 01:00:55;;;;;;;17.50;4.43;;;7.70;99.90;;;;;;5048754;28;20043;-76
2022/05/09 01:03:45;;;;;;;15.10;4.53;;;7.80;99.90;;;;;;5051375;28;20037;-74
2022/05/09 01:06:12;;;;;;;13.77;4.05;;;7.80;99.90;;;;;;5070063;28;20086;-75
2022/05/09 01:08:37;;;;;;;18.15;4.10;;;7.80;99.90;;;;;;5072158;28;20056;-76
2022/05/09 01:11:12;;;;;;;18.95;5.10;;;7.90;99.90;;;;;;5071646;28;20046;-75
2022/05/09 01:13:46;;;;;;;18.20;4.60;;;7.80;99.90;;;;;;5071254;28;20515;-75
2022/05/09 01:16:16;;;;;;;12.90;4.43;;;7.80;99.90;;;;;;5071133;28;20044;-75
2022/05/09 01:18:44;;;;;;;15.55;4.25;;;8.20;99.90;;;;;;5071647;28;20545;-75
2022/05/09 01:21:34;;;;;;;12.63;4.10;;;7.70;99.90;;;;;;5071422;28;20053;-75
2022/05/09 01:24:00;;;;;;;18.45;4.93;;;7.70;99.90;;;;;;5071415;28;20045;-76
2022/05/09 01:26:26;;;;;;;13.90;4.80;;;7.70;99.90;;;;;;5055053;28;20040;-75
2022/05/09 01:28:55;;;;;;;21.25;5.00;;;7.60;99.90;;;;;;5071512;28;20040;-75
2022/05/09 01:31:21;;;;;;;18.63;4.65;;;7.60;99.90;;;;;;5071752;28;20468;-75
2022/05/09 01:33:51;;;;;;;21.02;4.78;;;7.60;99.90;;;;;;5071135;28;20102;-75
2022/05/09 01:36:21;;;;;;;4.25;2.22;;;7.60;99.90;;;;;;5071427;28;20037;-75
2022/05/09 01:38:52;;;;;;;11.48;2.78;;;7.60;99.90;;;;;;5072548;28;20048;-75
2022/05/09 01:41:18;;;;;;;7.22;2.47;;;7.50;99.90;;;;;;5071592;28;20115;-75
2022/05/09 01:43:48;;;;;;;5.80;2.50;;;7.50;99.90;;;;;;5070873;28;20119;-75
2022/05/09 01:46:20;;;;;;;6.40;2.95;;;7.40;99.90;;;;;;5071202;28;20048;-75
2022/05/09 01:51:31;;;;;;;6.43;3.05;;;7.20;99.90;;;;;;5071235;28;20159;-75
2022/05/09 01:53:57;;;;;;;7.13;2.63;;;7.20;99.90;;;;;;5070777;28;20045;-75
2022/05/09 01:56:27;;;;;;;;;;;7.20;99.90;;;;;;5071510;28;20045;-75
2022/05/09 01:58:53;;;;;;;6.13;2.90;;;7.10;99.90;;;;;;5053957;28;20032;-75
2022/05/09 02:01:21;;;;;;;8.57;3.10;;;7.20;99.90;;;;;;5070850;28;20111;-75
2022/05/09 02:03:48;;;;;;;7.70;3.30;;;7.00;99.90;;;;;;5070396;28;20035;-75
2022/05/09 02:06:23;;;;;;;10.73;3.70;;;7.00;99.90;;;;;;5054191;28;20365;-75
2022/05/09 02:08:49;;;;;;;15.20;4.43;;;7.00;99.90;;;;;;5070648;28;20036;-75
2022/05/09 02:11:15;;;;;;;15.73;4.43;;;7.00;99.90;;;;;;5070684;28;20051;-75
2022/05/09 02:13:41;;;;;;;9.60;4.23;;;7.00;99.90;;;;;;5070823;28;20040;-75
2022/05/09 02:16:07;;;;;;;13.48;5.28;;;7.00;99.90;;;;;;5070234;28;20094;-75
2022/05/09 02:18:33;;;;;;;15.70;5.15;;;7.00;99.90;;;;;;5037241;28;20056;-75
2022/05/09 02:20:59;;;;;;;14.45;6.00;;;6.90;99.90;;;;;;5069596;28;20048;-75
2022/05/09 02:23:25;;;;;;;19.55;5.40;;;7.00;99.90;;;;;;5053865;28;20044;-76
2022/05/09 02:25:51;;;;;;;15.90;5.40;;;7.00;99.90;;;;;;5069977;28;20700;-75
2022/05/09 02:28:17;;;;;;;19.50;5.20;;;7.00;99.90;;;;;;5070383;28;20039;-75
2022/05/09 02:30:43;;;;;;;16.27;5.32;;;7.30;99.90;;;;;;5070664;28;20037;-75
2022/05/09 02:33:10;;;;;;;19.42;5.65;;;7.00;99.90;;;;;;5069988;28;20040;-75
2022/05/09 02:35:37;;;;;;;19.10;6.07;;;7.00;99.90;;;;;;5070350;28;20424;-76
2022/05/09 02:38:04;;;;;;;16.50;6.15;;;7.00;99.90;;;;;;5069585;28;20086;-75
2022/05/09 02:40:33;;;;;;;20.48;6.70;;;7.00;99.90;;;;;;5070215;28;20450;-75
2022/05/09 02:42:58;;;;;;;20.27;6.82;;;7.00;99.90;;;;;;5052964;28;20121;-75
2022/05/09 02:45:25;;;;;;;161.67;11.10;;;7.00;99.90;;;;;;5036962;28;20044;-75
2022/05/09 02:47:51;;;;;;;;;;;7.00;99.90;;;;;;5069460;28;20710;-75
2022/05/09 02:50:17;;;;;;;4.55;2.70;;;6.90;99.90;;;;;;5069231;28;19962;-75
2022/05/09 02:52:43;;;;;;;20.73;3.45;;;6.70;99.90;;;;;;5069933;28;20032;-76
2022/05/09 02:55:11;;;;;;;7.32;2.75;;;6.70;99.90;;;;;;5069448;28;20044;-74
2022/05/09 02:57:37;;;;;;;6.75;3.50;;;6.60;99.90;;;;;;5069535;28;20044;-75
2022/05/09 03:00:13;;;;;;;5.13;3.10;;;6.50;99.90;;;;;;5068883;28;20044;-75
2022/05/09 03:02:39;;;;;;;4.93;3.33;;;6.60;99.90;;;;;;5069573;28;20043;-76
2022/05/09 03:05:07;;;;;;;9.60;4.47;;;6.60;99.90;;;;;;5068966;28;20040;-75
2022/05/09 03:07:33;;;;;;;14.20;5.75;;;6.60;99.90;;;;;;5069459;28;20056;-75
2022/05/09 03:09:58;;;;;;;14.25;5.65;;;6.70;99.90;;;;;;5069183;28;20385;-75
2022/05/09 03:12:24;;;;;;;15.40;6.07;;;6.70;99.90;;;;;;5052929;28;20154;-75
2022/05/09 03:14:50;;;;;;;16.07;6.03;;;6.90;99.90;;;;;;5052279;28;20048;-74
2022/05/09 03:17:16;;;;;;;14.82;6.40;;;6.80;99.90;;;;;;5069208;28;20050;-75
2022/05/09 03:19:42;;;;;;;15.18;6.82;;;6.80;99.90;;;;;;5049870;28;20056;-74
2022/05/09 03:22:08;;;;;;;19.98;6.78;;;6.70;99.90;;;;;;5068740;28;20106;-74
2022/05/09 03:24:34;;;;;;;20.65;6.80;;;6.80;99.90;;;;;;5069018;28;20489;-75
2022/05/09 03:27:02;;;;;;;24.05;7.10;;;6.80;99.90;;;;;;5068336;28;20043;-74
2022/05/09 03:29:28;;;;;;;20.00;7.55;;;6.80;99.90;;;;;;5068716;28;20048;-75
2022/05/09 03:31:54;;;;;;;18.05;6.72;;;6.80;99.90;;;;;;5068926;28;20499;-76
2022/05/09 03:34:20;;;;;;;9.73;3.87;;;6.80;99.90;;;;;;5069236;28;20048;-76
2022/05/09 03:36:46;;;;;;;5.15;2.78;;;6.70;99.90;;;;;;5069377;28;20497;-76
2022/05/09 03:39:12;;;;;;;7.03;2.85;;;6.80;99.90;;;;;;5051555;28;20032;-75
2022/05/09 03:41:38;;;;;;;4.70;2.13;;;6.60;99.90;;;;;;5069292;28;20538;-75
2022/05/09 03:44:05;;;;;;;2.75;2.30;;;6.60;99.90;;;;;;5068785;28;20074;-75
2022/05/09 03:46:31;;;;;;;4.60;2.78;;;6.50;99.90;;;;;;5068631;28;20032;-74
2022/05/09 03:48:57;;;;;;;6.22;3.50;;;6.50;99.90;;;;;;5068398;28;20043;-75
2022/05/09 03:51:22;;;;;;;8.67;3.83;;;6.40;99.90;;;;;;5035589;28;20446;-75
2022/05/09 03:53:48;;;;;;;12.57;4.70;;;6.40;99.90;;;;;;5052141;28;20098;-75
2022/05/09 03:56:14;;;;;;;17.67;5.70;;;6.50;99.90;;;;;;5068278;28;20043;-76
2022/05/09 03:58:40;;;;;;;13.87;5.63;;;6.40;99.90;;;;;;5051947;28;20557;-75
2022/05/09 04:01:07;;;;;;;12.95;5.97;;;6.50;99.90;;;;;;5051407;28;20033;-76
2022/05/09 04:03:33;;;;;;;18.20;5.50;;;6.50;99.90;;;;;;5068529;28;20036;-75
2022/05/09 04:05:59;;;;;;;11.95;4.85;;;6.50;99.90;;;;;;5068033;28;20381;-74
2022/05/09 04:08:25;;;;;;;9.60;4.73;;;6.50;99.90;;;;;;5068367;28;20141;-75
2022/05/09 04:10:53;;;;;;;9.52;4.45;;;6.60;99.90;;;;;;5052253;28;20525;-75
2022/05/09 04:13:19;;;;;;;11.05;4.40;;;6.80;99.90;;;;;;5068702;28;20110;-75
2022/05/09 04:18:41;;;;;;;8.13;3.30;;;6.60;99.90;;;;;;5068178;28;20052;-74
2022/05/09 04:21:08;;;;;;;9.93;3.03;;;6.60;99.90;;;;;;5067713;28;20041;-75
2022/05/09 04:23:34;;;;;;;8.82;2.88;;;6.60;99.90;;;;;;5068730;28;20035;-74
2022/05/09 04:26:00;;;;;;;8.65;3.40;;;6.60;99.90;;;;;;5068081;28;20040;-75
2022/05/09 04:28:26;;;;;;;;;;;6.60;99.90;;;;;;5052349;28;20032;-75
2022/05/09 04:30:52;;;;;;;10.38;3.92;;;6.60;99.90;;;;;;5067771;28;19923;-76
2022/05/09 04:33:18;;;;;;;11.95;4.18;;;6.60;99.90;;;;;;5068030;28;20036;-76
2022/05/09 04:35:45;;;;;;;12.20;5.88;;;6.70;99.90;;;;;;5051384;28;20040;-76
2022/05/09 04:38:21;;;;;;;21.02;6.03;;;6.70;99.90;;;;;;5067697;28;20044;-77
2022/05/09 04:40:51;;;;;;;17.20;5.93;;;6.80;99.90;;;;;;5070002;28;20052;-76
2022/05/09 04:43:22;;;;;;;21.70;6.47;;;6.80;99.90;;;;;;5055666;28;20507;-77
2022/05/09 04:45:48;;;;;;;22.05;6.95;;;6.80;99.90;;;;;;5072855;28;20477;-76
2022/05/09 04:48:19;;;;;;;14.52;6.03;;;6.90;99.90;;;;;;5055284;28;20523;-77
2022/05/09 04:50:44;;;;;;;20.58;7.18;;;6.90;99.90;;;;;;5072252;28;20036;-76
2022/05/09 04:53:10;;;;;;;18.17;6.80;;;7.00;99.90;;;;;;5071767;28;20469;-76
2022/05/09 04:55:36;;;;;;;23.42;6.95;;;7.00;99.90;;;;;;5055572;28;20037;-79
2022/05/09 04:58:03;;;;;;;20.40;6.32;;;7.10;99.90;;;;;;5037316;28;20562;-77
2022/05/09 05:00:29;;;;;;;16.30;6.50;;;7.10;99.90;;;;;;5071015;28;20098;-76
2022/05/09 05:02:56;;;;;;;20.30;6.35;;;7.20;99.90;;;;;;5072858;28;20039;-76
2022/05/09 05:05:23;;;;;;;17.65;6.50;;;7.20;99.90;;;;;;5072151;28;20078;-77
2022/05/09 05:07:49;;;;;;;19.58;7.07;;;7.30;99.90;;;;;;5071964;28;20393;-76
2022/05/09 05:10:15;;;;;;;19.77;6.85;;;7.40;99.90;;;;;;5070888;28;20037;-76
2022/05/09 05:12:41;;;;;;;17.77;6.50;;;7.50;99.90;;;;;;5071530;28;20040;-77
2022/05/09 05:15:08;;;;;;;20.27;6.47;;;7.50;99.90;;;;;;5071079;28;20041;-76
2022/05/09 05:17:35;;;;;;;21.35;7.32;;;7.50;99.90;;;;;;5055000;28;20060;-77
2022/05/09 05:20:02;;;;;;;20.95;6.80;;;7.60;99.90;;;;;;5070558;28;20131;-77
2022/05/09 05:22:28;;;;;;;24.70;7.50;;;7.80;99.90;;;;;;5071398;28;20036;-77
2022/05/09 05:24:54;;;;;;;19.27;6.50;;;7.80;99.90;;;;;;5071323;28;20036;-78
2022/05/09 05:27:21;;;;;;;16.65;6.60;;;7.90;99.90;;;;;;5070933;28;20055;-77
2022/05/09 05:29:49;;;;;;;16.85;6.63;;;8.00;99.90;;;;;;5054505;28;20132;-77
2022/05/09 05:32:17;;;;;;;18.40;7.10;;;8.10;99.90;;;;;;5070597;28;20055;-77
2022/05/09 05:34:43;;;;;;;17.85;7.13;;;8.20;99.90;;;;;;5071427;28;20116;-77
2022/05/09 05:37:09;;;;;;;15.07;6.80;;;8.30;99.90;;;;;;5070641;28;20119;-76
2022/05/09 05:39:37;;;;;;;18.57;6.77;;;8.40;99.90;;;;;;5054321;28;20037;-76
2022/05/09 05:42:07;;;;;;;18.67;7.32;;;8.60;99.90;;;;;;5070457;28;20071;-77
2022/05/09 05:44:34;;;;;;;17.25;7.35;;;8.80;99.90;;;;;;5054450;28;20066;-77
2022/05/09 05:47:07;;;;;;;19.67;7.45;;;8.90;99.90;;;;;;5070665;28;20047;-77
2022/05/09 05:49:34;;;;;;;17.08;7.60;;;9.10;99.90;;;;;;5071092;28;20381;-77
2022/05/09 05:52:03;;;;;;;22.80;7.45;;;9.20;99.90;;;;;;5069944;28;20044;-77
2022/05/09 05:54:31;;;;;;;22.40;7.68;;;9.40;99.90;;;;;;5070775;28;20115;-77
2022/05/09 05:56:57;;;;;;;21.10;7.22;;;9.60;99.90;;;;;;5070587;28;20047;-76
2022/05/09 05:59:23;;;;;;;20.25;6.75;;;9.70;99.90;;;;;;5070278;28;20547;-76
2022/05/09 06:01:51;;;;;;;19.37;7.00;;;9.80;99.90;;;;;;5054305;28;20087;-77
2022/05/09 06:04:17;;;;;;;18.48;6.75;;;9.90;99.90;;;;;;5069965;28;20289;-78
2022/05/09 06:06:43;;;;;;;20.23;7.05;;;10.10;99.90;;;;;;5070824;28;20442;-77
2022/05/09 06:09:09;;;;;;;15.83;6.50;;;10.60;99.90;;;;;;5069834;28;20040;-77
2022/05/09 06:11:35;;;;;;;;;;;11.10;99.90;;;;;;5070824;28;20066;-77
2022/05/09 06:14:04;;;;;;;16.05;6.50;;;11.50;99.90;;;;;;5070371;28;20327;-76
2022/05/09 06:16:30;;;;;;;19.08;6.35;;;11.80;99.90;;;;;;5070521;28;20119;-77
2022/05/09 06:18:56;;;;;;;18.33;6.32;;;12.20;99.90;;;;;;5070036;28;20048;-77
2022/05/09 06:21:22;;;;;;;13.93;5.70;;;12.50;99.90;;;;;;5053432;28;20724;-77
2022/05/09 06:23:50;;;;;;;22.58;5.78;;;12.60;99.90;;;;;;5070533;28;20072;-77
2022/05/09 06:26:16;;;;;;;19.77;6.05;;;12.90;99.90;;;;;;5052866;28;20059;-78
2022/05/09 06:28:42;;;;;;;15.00;5.23;;;13.10;99.90;;;;;;5070153;28;20037;-77
2022/05/09 06:31:08;;;;;;;11.80;4.93;;;13.20;99.90;;;;;;5069374;28;20309;-77
2022/05/09 06:33:34;;;;;;;17.33;5.55;;;13.60;99.90;;;;;;5070065;28;20044;-77
2022/05/09 06:36:01;;;;;;;15.70;5.13;;;13.80;99.90;;;;;;5069832;28;20036;-77
2022/05/09 06:38:27;;;;;;;15.82;5.28;;;14.00;99.90;;;;;;5069646;28;20068;-76
2022/05/09 06:40:54;;;;;;;11.80;4.95;;;14.20;99.90;;;;;;5069877;28;20049;-77
2022/05/09 06:43:22;;;;;;;16.17;5.22;;;14.10;99.90;;;;;;5069465;28;20071;-77
2022/05/09 06:45:50;;;;;;;16.17;4.43;;;14.40;99.90;;;;;;5051553;28;20051;-77
2022/05/09 06:48:16;;;;;;;18.95;4.70;;;14.40;99.90;;;;;;5069179;28;20048;-77
2022/05/09 06:50:42;;;;;;;15.00;5.28;;;14.70;99.90;;;;;;5069686;28;20043;-77
2022/05/09 06:53:10;;;;;;;10.00;4.20;;;15.00;99.90;;;;;;5066927;28;20044;-78
2022/05/09 06:55:35;;;;;;;11.63;4.53;;;15.10;99.90;;;;;;5069611;28;20041;-77
2022/05/09 06:58:06;;;;;;;11.48;4.10;;;15.20;99.90;;;;;;5069749;28;20510;-76
2022/05/09 07:00:32;;;;;;;11.98;4.60;;;15.30;99.90;;;;;;5069379;28;20124;-77
2022/05/09 07:02:57;;;;;;;13.25;3.92;;;15.40;99.90;;;;;;5069980;28;20119;-77
2022/05/09 07:05:23;;;;;;;9.93;4.10;;;15.60;99.90;;;;;;5068965;28;20119;-77
2022/05/09 07:07:49;;;;;;;12.82;4.50;;;15.70;99.90;;;;;;5069266;28;20125;-77
2022/05/09 07:10:17;;;;;;;15.57;4.30;;;15.60;99.90;;;;;;5052106;28;20090;-77
2022/05/09 07:12:44;;;;;;;13.43;4.55;;;15.90;99.90;;;;;;5069502;28;20158;-76
2022/05/09 07:15:12;;;;;;;12.18;3.67;;;16.00;99.90;;;;;;5068647;28;20044;-77
2022/05/09 07:17:38;;;;;;;8.85;3.40;;;16.30;99.90;;;;;;5052539;28;20035;-77
2022/05/09 07:20:04;;;;;;;10.75;3.92;;;16.40;99.90;;;;;;5068892;28;20045;-76
2022/05/09 07:22:30;;;;;;;11.55;3.53;;;16.20;99.90;;;;;;5035648;28;20186;-77
2022/05/09 07:24:56;;;;;;;11.80;3.38;;;16.20;99.90;;;;;;5069340;28;20120;-77
2022/05/09 07:27:22;;;;;;;11.25;4.03;;;16.40;99.90;;;;;;5051956;28;20044;-77
2022/05/09 07:29:47;;;;;;;9.70;3.70;;;16.60;99.90;;;;;;5052579;28;20029;-77
2022/05/09 07:32:13;;;;;;;12.43;4.20;;;16.60;99.90;;;;;;5068603;28;20076;-77
2022/05/09 07:34:39;;;;;;;14.95;3.40;;;16.50;99.90;;;;;;5068817;28;20042;-77
2022/05/09 07:37:04;;;;;;;10.88;3.85;;;16.80;99.90;;;;;;5052077;28;20032;-77
2022/05/09 07:39:31;;;;;;;18.40;3.97;;;17.10;99.90;;;;;;5068497;28;20056;-77
2022/05/09 07:41:57;;;;;;;11.43;3.55;;;17.50;99.90;;;;;;5052071;28;20076;-77
2022/05/09 07:44:23;;;;;;;17.17;3.63;;;17.50;99.90;;;;;;5068627;28;20495;-76
2022/05/09 07:46:49;;;;;;;13.38;3.83;;;17.70;99.90;;;;;;5069173;28;20198;-77
2022/05/09 07:49:15;;;;;;;10.02;2.95;;;17.70;99.90;;;;;;5068051;28;20066;-78
2022/05/09 07:51:41;;;;;;;10.10;3.33;;;18.00;99.90;;;;;;5068847;28;20048;-77
2022/05/09 07:54:07;;;;;;;9.00;2.95;;;18.20;99.90;;;;;;5052003;28;20057;-76
2022/05/09 07:56:33;;;;;;;9.98;3.08;;;18.30;99.90;;;;;;5068162;28;20048;-77
2022/05/09 07:58:59;;;;;;;14.43;3.13;;;18.50;99.90;;;;;;5052004;28;20040;-76
2022/05/09 08:01:25;;;;;;;10.30;3.85;;;18.70;99.90;;;;;;5068126;28;20041;-78
2022/05/09 08:03:51;;;;;;;;;;;18.80;99.90;;;;;;5052436;28;20037;-77
2022/05/09 08:06:17;;;;;;;10.73;3.35;;;18.80;99.90;;;;;;5051144;28;20407;-78
2022/05/09 08:08:43;;;;;;;11.98;3.17;;;18.80;99.90;;;;;;5068429;28;20430;-77
2022/05/09 08:11:09;;;;;;;;;;;19.00;99.90;;;;;;5068866;28;20086;-76
2022/05/09 08:13:35;;;;;;;9.15;3.15;;;19.00;99.90;;;;;;5067944;28;19951;-77
2022/05/09 08:16:03;;;;;;;8.93;3.17;;;19.30;99.90;;;;;;5068255;28;20086;-77
2022/05/09 08:18:31;;;;;;;8.60;2.65;;;19.50;99.90;;;;;;5069188;28;20036;-78
2022/05/09 08:20:59;;;;;;;12.23;2.80;;;19.80;99.90;;;;;;5068201;28;20048;-77
2022/05/09 08:23:26;;;;;;;7.60;2.53;;;20.00;99.90;;;;;;5067856;28;20051;-77
2022/05/09 08:25:53;;;;;;;8.30;2.63;;;20.20;99.90;;;;;;5068410;28;20032;-77
2022/05/09 08:28:19;;;;;;;8.30;2.67;;;20.10;99.60;;;;;;5068956;28;20618;-78
2022/05/09 08:30:47;;;;;;;8.13;2.60;;;20.10;98.50;;;;;;5035183;28;20396;-78
2022/05/09 08:33:20;;;;;;;10.45;2.88;;;20.40;99.20;;;;;;5051133;28;20040;-77
2022/05/09 08:35:48;;;;;;;8.27;2.50;;;21.00;99.30;;;;;;5068324;28;20107;-78
2022/05/09 08:38:14;;;;;;;10.20;2.80;;;21.20;97.50;;;;;;5068776;28;20069;-78
2022/05/09 08:40:45;;;;;;;;;;;21.50;98.80;;;;;;5068418;28;20129;-78
2022/05/09 08:43:40;;;;;;;8.07;2.90;;;21.50;97.30;;;;;;5068211;28;20386;-77
2022/05/09 08:46:16;;;;;;;8.10;2.70;;;21.30;95.90;;;;;;5068296;28;20079;-77
2022/05/09 08:48:57;;;;;;;12.27;2.60;;;21.50;96.40;;;;;;5068020;28;20053;-77
2022/05/09 08:51:38;;;;;;;8.60;2.22;;;21.50;94.60;;;;;;5067686;28;20553;-76
2022/05/09 08:54:08;;;;;;;9.07;2.35;;;21.80;94.80;;;;;;5051242;28;20073;-77
2022/05/09 08:56:34;;;;;;;11.40;2.47;;;21.90;94.60;;;;;;5067686;28;20540;-76
2022/05/09 08:59:04;;;;;;;;;;;21.90;93.20;;;;;;5068145;28;20068;-77
2022/05/09 09:01:32;;;;;;;8.73;2.15;;;22.10;93.40;;;;;;5067338;28;19921;-77
2022/05/09 09:04:01;;;;;;;7.20;1.70;;;22.10;92.70;;;;;;5067723;28;20120;-78
2022/05/09 09:07:08;;;;;;;8.80;2.00;;;22.50;91.40;;;;;;5067311;28;20051;-76
2022/05/09 09:10:02;;;;;;;8.05;2.10;;;22.90;91.20;;;;;;5067646;28;20036;-77
2022/05/09 09:12:46;;;;;;;6.90;1.73;;;22.80;88.80;;;;;;5067408;28;20170;-76
2022/05/09 09:15:31;;;;;;;5.95;2.05;;;23.20;88.20;;;;;;5067490;28;20040;-76
2022/05/09 09:18:03;;;;;;;6.97;2.10;;;23.20;87.70;;;;;;5067789;28;20527;-76
2022/05/09 09:20:50;;;;;;;8.27;2.00;;;23.40;88.90;;;;;;5066915;28;20075;-76
2022/05/09 09:23:18;;;;;;;7.22;1.67;;;23.40;87.30;;;;;;5067765;28;20147;-75
2022/05/09 09:26:04;;;;;;;6.05;1.77;;;23.50;87.20;;;;;;5067901;28;20435;-76
2022/05/09 09:28:33;;;;;;;6.05;2.13;;;23.70;84.00;;;;;;5054253;28;20041;-78
2022/05/09 09:31:00;;;;;;;7.40;2.13;;;23.60;83.80;;;;;;5072350;28;20049;-76
2022/05/09 09:33:26;;;;;;;6.15;1.90;;;24.10;84.80;;;;;;5070710;28;20041;-76
2022/05/09 09:36:07;;;;;;;7.47;1.90;;;24.30;86.20;;;;;;5071140;28;20045;-76
2022/05/09 09:38:54;;;;;;;6.10;1.70;;;24.40;83.70;;;;;;5054396;28;20388;-76
2022/05/09 09:41:27;;;;;;;9.20;2.20;;;24.40;79.70;;;;;;5070305;28;20159;-76
2022/05/09 09:44:19;;;;;;;8.07;2.75;;;24.50;82.70;;;;;;5071001;28;20036;-76
2022/05/09 09:47:09;;;;;;;6.47;1.80;;;24.30;82.40;;;;;;5070938;28;20033;-76
2022/05/09 09:49:40;;;;;;;5.28;1.75;;;24.70;80.40;;;;;;5070835;28;20568;-77
2022/05/09 09:52:21;;;;;;;6.30;1.50;;;24.70;75.00;;;;;;5070900;28;20076;-76
2022/05/09 09:55:16;;;;;;;6.18;1.73;;;24.70;77.40;;;;;;5072103;28;20040;-76
2022/05/09 09:57:44;;;;;;;7.55;1.92;;;24.50;77.70;;;;;;5052859;28;20044;-76
2022/05/09 10:00:20;;;;;;;8.15;2.00;;;25.30;76.90;;;;;;5054257;28;20412;-76
2022/05/09 10:02:48;;;;;;;7.68;1.80;;;25.60;74.20;;;;;;5070631;28;20035;-76
2022/05/09 10:05:17;;;;;;;5.82;1.70;;;25.80;75.70;;;;;;5070467;28;20086;-76
2022/05/09 10:07:44;;;;;;;8.25;1.88;;;25.40;75.40;;;;;;5070056;28;20041;-76
2022/05/09 10:10:14;;;;;;;5.13;2.00;;;25.10;74.70;;;;;;5070842;28;20380;-76
2022/05/09 10:12:44;;;;;;;7.30;2.13;;;24.70;74.10;;;;;;5070148;28;20083;-77
2022/05/09 10:15:30;;;;;;;8.15;1.73;;;25.00;76.10;;;;;;5070471;28;20044;-77
2022/05/09 10:17:58;;;;;;;8.05;1.92;;;25.40;73.70;;;;;;5070155;28;20109;-77
2022/05/09 10:20:41;;;;;;;8.05;1.80;;;25.30;75.00;;;;;;5069645;28;20092;-76
2022/05/09 10:26:25;;;;;;;7.18;1.95;;;25.50;73.20;;;;;;5070409;28;20390;-77
2022/05/09 10:29:00;;;;;;;4.50;1.58;;;25.80;73.20;;;;;;5070202;28;20109;-76
2022/05/09 10:32:01;;;;;;;8.15;1.90;;;25.20;70.60;;;;;;5069649;28;20043;-76
2022/05/09 10:34:51;;;;;;;7.90;1.80;;;25.40;71.20;;;;;;5056741;28;20101;-76
2022/05/09 10:37:40;;;;;;;6.47;1.58;;;25.70;71.80;;;;;;5070126;28;20469;-77
2022/05/09 10:40:18;;;;;;;6.82;1.80;;;26.10;72.60;;;;;;5069696;28;20043;-76
2022/05/09 10:42:51;;;;;;;6.05;1.85;;;26.20;73.00;;;;;;5069721;28;20431;-76
2022/05/09 10:45:21;;;;;;;7.43;2.03;;;26.30;71.00;;;;;;5053577;28;20048;-76
2022/05/09 10:48:05;;;;;;;7.35;1.80;;;26.60;71.10;;;;;;5052853;28;20033;-77
2022/05/09 10:50:58;;;;;;;7.95;2.15;;;26.80;71.50;;;;;;5052822;28;20496;-76
2022/05/09 10:53:55;;;;;;;7.70;2.05;;;26.40;71.20;;;;;;5069187;28;20044;-76
2022/05/09 10:56:43;;;;;;;9.15;2.00;;;26.60;69.60;;;;;;5053129;28;20044;-76
2022/05/09 10:59:11;;;;;;;7.03;1.98;;;26.50;70.20;;;;;;5052814;28;20041;-76
2022/05/09 11:01:45;;;;;;;6.63;2.00;;;26.70;69.70;;;;;;5069216;28;20032;-76
2022/05/09 11:04:13;;;;;;;5.65;2.13;;;26.70;70.10;;;;;;5069747;28;20437;-77
2022/05/09 11:07:06;;;;;;;10.40;2.10;;;26.30;69.80;;;;;;5053154;28;20494;-76
2022/05/09 11:09:37;;;;;;;7.55;1.85;;;27.10;70.80;;;;;;5052187;28;20102;-76
2022/05/09 11:12:15;;;;;;;5.20;1.95;;;27.50;69.90;;;;;;5069198;28;20041;-76
2022/05/09 11:15:14;;;;;;;6.45;1.73;;;28.00;69.10;;;;;;5070241;28;20045;-76
2022/05/09 11:17:59;;;;;;;8.77;2.13;;;28.10;68.10;;;;;;5066553;28;20036;-76
2022/05/09 11:20:28;;;;;;;6.55;2.28;;;27.90;68.40;;;;;;5070232;28;20041;-76
2022/05/09 11:23:32;;;;;;;5.70;2.03;;;27.80;67.40;;;;;;5068989;28;20044;-76
2022/05/09 11:26:29;;;;;;;8.98;2.83;;;27.50;68.40;;;;;;5067303;28;20076;-76
2022/05/09 11:29:12;;;;;;;5.78;1.70;;;27.50;69.10;;;;;;5048458;28;20064;-77
2022/05/09 11:31:53;;;;;;;6.15;2.05;;;27.40;66.90;;;;;;5068475;28;20043;-76
2022/05/09 11:35:00;;;;;;;6.53;1.55;;;27.00;68.10;;;;;;5069002;28;20074;-75
2022/05/09 11:37:35;;;;;;;8.13;2.20;;;26.70;67.00;;;;;;5041044;28;20543;-76
2022/05/09 11:40:06;;;;;;;6.85;1.80;;;26.80;68.60;;;;;;5068536;28;20074;-76
2022/05/09 11:46:08;;;;;;;10.05;2.00;;;27.30;66.00;;;;;;5068315;28;20083;-76
2022/05/09 11:48:53;;;;;;;3.67;1.40;;;27.50;66.50;;;;;;5068169;28;20044;-76
2022/05/09 11:51:34;;;;;;;7.57;1.90;;;28.40;66.50;;;;;;5068755;28;20048;-76
2022/05/09 11:54:04;;;;;;;4.55;1.50;;;28.30;67.20;;;;;;5051813;28;20082;-76
2022/05/09 11:56:31;;;;;;;5.82;1.63;;;28.00;67.10;;;;;;5068249;28;20375;-75
2022/05/09 11:58:58;;;;;;;6.38;1.60;;;28.30;66.50;;;;;;5068443;28;20048;-75
2022/05/09 12:01:55;;;;;;;4.75;1.70;;;28.00;65.50;;;;;;5068529;28;20041;-75
2022/05/09 12:04:34;;;;;;;7.28;1.70;;;27.90;65.00;;;;;;5068674;28;20032;-76
2022/05/09 12:07:01;;;;;;;7.75;1.67;;;28.30;65.00;;;;;;5068244;28;20040;-75
2022/05/09 12:10:01;;;;;;;4.38;1.60;;;28.50;66.30;;;;;;5069836;28;20512;-75
2022/05/09 12:12:41;;;;;;;4.68;1.25;;;29.10;65.80;;;;;;5051989;28;20047;-75
2022/05/09 12:15:15;;;;;;;6.88;1.80;;;29.30;66.60;;;;;;5068253;28;20043;-75
2022/05/09 12:17:42;;;;;;;4.93;1.48;;;28.70;66.20;;;;;;5051423;28;20063;-75
2022/05/09 12:20:37;;;;;;;8.27;1.73;;;29.00;66.20;;;;;;5067998;28;20540;-75
2022/05/09 12:23:03;;;;;;;6.25;1.42;;;29.20;64.90;;;;;;5046209;28;20045;-75
2022/05/09 12:25:53;;;;;;;5.13;1.55;;;29.60;65.60;;;;;;5051916;28;20041;-75
2022/05/09 12:28:30;;;;;;;5.47;1.48;;;29.60;65.40;;;;;;5068439;28;20414;-76
2022/05/09 12:31:01;;;;;;;6.20;1.58;;;29.70;65.80;;;;;;5067864;28;20040;-76
2022/05/09 12:33:41;;;;;;;8.25;1.42;;;29.50;65.20;;;;;;5068226;28;20044;-76
2022/05/09 12:36:10;;;;;;;6.70;1.52;;;29.20;63.80;;;;;;5068024;28;20040;-75
2022/05/09 12:38:39;;;;;;;4.68;1.70;;;29.00;64.80;;;;;;5067657;28;20355;-76
2022/05/09 12:41:16;;;;;;;3.97;1.20;;;29.20;63.80;;;;;;5067957;28;20041;-76
2022/05/09 12:43:46;;;;;;;6.35;1.30;;;29.40;64.50;;;;;;5067967;28;20036;-76
2022/05/09 12:46:44;;;;;;;2.80;1.27;;;29.80;65.20;;;;;;5067898;28;20040;-75
2022/05/09 12:49:11;;;;;;;5.35;1.50;;;29.90;65.40;;;;;;5068097;28;20135;-75
2022/05/09 12:51:49;;;;;;;5.88;1.40;;;30.50;64.00;;;;;;5068839;28;20115;-76
2022/05/09 12:54:18;;;;;;;4.88;1.50;;;30.10;63.30;;;;;;5067933;28;20047;-76
2022/05/09 12:57:00;;;;;;;4.35;1.45;;;29.80;63.10;;;;;;5067534;28;20041;-75
2022/05/09 12:59:43;;;;;;;7.18;1.55;;;29.80;64.30;;;;;;5067821;28;20098;-76
2022/05/09 13:02:08;;;;;;;4.57;1.38;;;29.10;64.00;;;;;;5071125;28;20036;-74
2022/05/09 13:04:39;;;;;;;4.88;1.13;;;29.10;63.50;;;;;;5072029;28;20044;-75
2022/05/09 13:07:07;;;;;;;6.50;1.42;;;29.40;63.80;;;;;;5055820;28;20110;-76
2022/05/09 13:09:49;;;;;;;4.22;1.55;;;29.60;63.90;;;;;;5071717;28;20080;-75
2022/05/09 13:12:25;;;;;;;8.93;1.83;;;28.80;62.40;;;;;;5071623;28;20055;-75
2022/05/09 13:14:54;;;;;;;5.57;1.42;;;28.90;64.30;;;;;;5071409;28;20074;-74
2022/05/09 13:17:29;;;;;;;3.95;1.42;;;29.60;63.50;;;;;;5071485;28;20044;-76
2022/05/09 13:19:57;;;;;;;4.93;1.45;;;29.50;63.80;;;;;;5054390;28;20470;-75